sensor_id;sensor_type;location;lat;lon;timestamp;P1;durP1;ratioP1;P2;durP2;ratioP2
11907;SDS011;6014;47.690;9.130;2023-03-23T00:01:59;3.47;;;1.83;;
11907;SDS011;6014;47.690;9.130;2023-03-23T00:04:30;4.60;;;2.30;;
11907;SDS011;6014;47.690;9.130;2023-03-23T00:06:58;4.07;;;2.30;;
11907;SDS011;6014;47.690;9.130;2023-03-23T00:09:27;4.20;;;1.97;;
11907;SDS011;6014;47.690;9.130;2023-03-23T00:12:01;2.93;;;1.70;;
11907;SDS011;6014;47.690;9.130;2023-03-23T00:14:34;3.30;;;1.80;;
11907;SDS011;6014;47.690;9.130;2023-03-23T00:17:09;3.27;;;1.80;;
11907;SDS011;6014;47.690;9.130;2023-03-23T00:19:39;4.17;;;1.90;;
11907;SDS011;6014;47.690;9.130;2023-03-23T00:22:15;6.13;;;1.90;;
11907;SDS011;6014;47.690;9.130;2023-03-23T00:24:50;4.37;;;2.00;;
11907;SDS011;6014;47.690;9.130;2023-03-23T00:27:17;2.63;;;1.50;;
11907;SDS011;6014;47.690;9.130;2023-03-23T00:29:54;4.53;;;1.83;;
11907;SDS011;6014;47.690;9.130;2023-03-23T00:32:24;4.80;;;1.90;;
11907;SDS011;6014;47.690;9.130;2023-03-23T00:34:54;3.50;;;1.57;;
11907;SDS011;6014;47.690;9.130;2023-03-23T00:37:27;4.17;;;2.03;;
11907;SDS011;6014;47.690;9.130;2023-03-23T00:39:55;3.30;;;1.60;;
11907;SDS011;6014;47.690;9.130;2023-03-23T00:42:27;4.10;;;1.90;;
11907;SDS011;6014;47.690;9.130;2023-03-23T00:47:27;5.50;;;2.27;;
11907;SDS011;6014;47.690;9.130;2023-03-23T00:52:31;5.60;;;2.33;;
11907;SDS011;6014;47.690;9.130;2023-03-23T00:55:04;3.93;;;2.07;;
11907;SDS011;6014;47.690;9.130;2023-03-23T00:57:31;5.13;;;2.20;;
11907;SDS011;6014;47.690;9.130;2023-03-23T01:05:06;4.37;;;2.00;;
11907;SDS011;6014;47.690;9.130;2023-03-23T01:10:05;4.57;;;2.17;;
11907;SDS011;6014;47.690;9.130;2023-03-23T01:12:40;4.77;;;2.43;;
11907;SDS011;6014;47.690;9.130;2023-03-23T01:15:15;5.50;;;2.40;;
11907;SDS011;6014;47.690;9.130;2023-03-23T01:17:44;4.13;;;2.20;;
11907;SDS011;6014;47.690;9.130;2023-03-23T01:20:13;4.50;;;2.27;;
11907;SDS011;6014;47.690;9.130;2023-03-23T01:22:43;3.67;;;1.97;;
11907;SDS011;6014;47.690;9.130;2023-03-23T01:25:12;6.30;;;2.40;;
11907;SDS011;6014;47.690;9.130;2023-03-23T01:27:40;4.03;;;2.07;;
11907;SDS011;6014;47.690;9.130;2023-03-23T01:30:18;4.17;;;2.10;;
11907;SDS011;6014;47.690;9.130;2023-03-23T01:32:45;4.63;;;2.10;;
11907;SDS011;6014;47.690;9.130;2023-03-23T01:35:14;6.13;;;2.33;;
11907;SDS011;6014;47.690;9.130;2023-03-23T01:37:45;5.50;;;2.40;;
11907;SDS011;6014;47.690;9.130;2023-03-23T01:40:13;5.27;;;2.53;;
11907;SDS011;6014;47.690;9.130;2023-03-23T01:42:42;7.20;;;2.43;;
11907;SDS011;6014;47.690;9.130;2023-03-23T01:45:27;5.83;;;2.70;;
11907;SDS011;6014;47.690;9.130;2023-03-23T01:48:00;4.63;;;2.30;;
11907;SDS011;6014;47.690;9.130;2023-03-23T01:53:04;5.33;;;2.20;;
11907;SDS011;6014;47.690;9.130;2023-03-23T01:55:48;6.27;;;2.60;;
11907;SDS011;6014;47.690;9.130;2023-03-23T01:58:19;5.47;;;2.17;;
11907;SDS011;6014;47.690;9.130;2023-03-23T02:00:54;5.40;;;2.67;;
11907;SDS011;6014;47.690;9.130;2023-03-23T02:03:31;6.37;;;2.33;;
11907;SDS011;6014;47.690;9.130;2023-03-23T02:06:05;6.93;;;3.13;;
11907;SDS011;6014;47.690;9.130;2023-03-23T02:08:41;4.50;;;2.50;;
11907;SDS011;6014;47.690;9.130;2023-03-23T02:14:03;5.43;;;2.43;;
11907;SDS011;6014;47.690;9.130;2023-03-23T02:16:38;5.03;;;2.47;;
11907;SDS011;6014;47.690;9.130;2023-03-23T02:22:17;5.43;;;2.30;;
11907;SDS011;6014;47.690;9.130;2023-03-23T02:25:23;6.50;;;2.80;;
11907;SDS011;6014;47.690;9.130;2023-03-23T02:28:19;4.73;;;2.50;;
11907;SDS011;6014;47.690;9.130;2023-03-23T02:31:05;5.40;;;2.80;;
11907;SDS011;6014;47.690;9.130;2023-03-23T02:33:48;6.07;;;2.93;;
11907;SDS011;6014;47.690;9.130;2023-03-23T02:39:12;11.17;;;3.73;;
11907;SDS011;6014;47.690;9.130;2023-03-23T02:41:45;5.50;;;2.77;;
11907;SDS011;6014;47.690;9.130;2023-03-23T02:44:21;5.87;;;2.60;;
11907;SDS011;6014;47.690;9.130;2023-03-23T02:46:55;5.00;;;2.40;;
11907;SDS011;6014;47.690;9.130;2023-03-23T02:49:27;7.40;;;3.47;;
11907;SDS011;6014;47.690;9.130;2023-03-23T02:51:58;4.57;;;2.60;;
11907;SDS011;6014;47.690;9.130;2023-03-23T02:54:27;6.13;;;2.90;;
11907;SDS011;6014;47.690;9.130;2023-03-23T02:56:56;6.17;;;2.47;;
11907;SDS011;6014;47.690;9.130;2023-03-23T02:59:26;5.30;;;2.63;;
11907;SDS011;6014;47.690;9.130;2023-03-23T03:01:55;5.00;;;2.63;;
11907;SDS011;6014;47.690;9.130;2023-03-23T03:04:28;5.40;;;2.60;;
11907;SDS011;6014;47.690;9.130;2023-03-23T03:07:07;5.50;;;3.00;;
11907;SDS011;6014;47.690;9.130;2023-03-23T03:09:55;5.17;;;2.57;;
11907;SDS011;6014;47.690;9.130;2023-03-23T03:12:28;6.60;;;2.60;;
11907;SDS011;6014;47.690;9.130;2023-03-23T03:15:01;5.77;;;2.70;;
11907;SDS011;6014;47.690;9.130;2023-03-23T03:17:38;4.80;;;2.50;;
11907;SDS011;6014;47.690;9.130;2023-03-23T03:20:13;6.33;;;2.90;;
11907;SDS011;6014;47.690;9.130;2023-03-23T03:22:44;4.97;;;2.30;;
11907;SDS011;6014;47.690;9.130;2023-03-23T03:25:15;5.60;;;2.77;;
11907;SDS011;6014;47.690;9.130;2023-03-23T03:27:44;6.07;;;3.20;;
11907;SDS011;6014;47.690;9.130;2023-03-23T03:30:14;4.73;;;2.37;;
11907;SDS011;6014;47.690;9.130;2023-03-23T03:32:47;6.23;;;2.47;;
11907;SDS011;6014;47.690;9.130;2023-03-23T03:35:26;7.80;;;2.67;;
11907;SDS011;6014;47.690;9.130;2023-03-23T03:37:53;4.60;;;2.50;;
11907;SDS011;6014;47.690;9.130;2023-03-23T03:42:55;6.03;;;3.47;;
11907;SDS011;6014;47.690;9.130;2023-03-23T03:45:22;8.07;;;3.20;;
11907;SDS011;6014;47.690;9.130;2023-03-23T03:47:49;7.17;;;4.07;;
11907;SDS011;6014;47.690;9.130;2023-03-23T03:50:16;6.47;;;3.83;;
11907;SDS011;6014;47.690;9.130;2023-03-23T03:52:45;6.40;;;4.00;;
11907;SDS011;6014;47.690;9.130;2023-03-23T03:55:24;6.67;;;4.13;;
11907;SDS011;6014;47.690;9.130;2023-03-23T03:57:53;6.63;;;4.07;;
11907;SDS011;6014;47.690;9.130;2023-03-23T04:00:25;6.97;;;4.40;;
11907;SDS011;6014;47.690;9.130;2023-03-23T04:02:53;9.63;;;4.77;;
11907;SDS011;6014;47.690;9.130;2023-03-23T04:05:21;7.87;;;4.13;;
11907;SDS011;6014;47.690;9.130;2023-03-23T04:07:56;7.33;;;4.20;;
11907;SDS011;6014;47.690;9.130;2023-03-23T04:10:27;8.53;;;4.83;;
11907;SDS011;6014;47.690;9.130;2023-03-23T04:12:54;9.03;;;4.77;;
11907;SDS011;6014;47.690;9.130;2023-03-23T04:15:21;8.77;;;4.90;;
11907;SDS011;6014;47.690;9.130;2023-03-23T04:17:50;10.20;;;5.20;;
11907;SDS011;6014;47.690;9.130;2023-03-23T04:20:17;10.17;;;5.07;;
11907;SDS011;6014;47.690;9.130;2023-03-23T04:22:45;10.80;;;4.83;;
11907;SDS011;6014;47.690;9.130;2023-03-23T04:25:16;7.47;;;4.77;;
11907;SDS011;6014;47.690;9.130;2023-03-23T04:27:46;7.07;;;4.53;;
11907;SDS011;6014;47.690;9.130;2023-03-23T04:30:17;8.20;;;4.73;;
11907;SDS011;6014;47.690;9.130;2023-03-23T04:32:45;9.57;;;4.40;;
11907;SDS011;6014;47.690;9.130;2023-03-23T04:37:53;7.00;;;3.97;;
11907;SDS011;6014;47.690;9.130;2023-03-23T04:40:22;7.43;;;4.00;;
11907;SDS011;6014;47.690;9.130;2023-03-23T04:42:50;9.43;;;4.60;;
11907;SDS011;6014;47.690;9.130;2023-03-23T04:45:22;7.20;;;4.30;;
11907;SDS011;6014;47.690;9.130;2023-03-23T04:47:50;6.80;;;3.83;;
11907;SDS011;6014;47.690;9.130;2023-03-23T04:50:28;5.93;;;3.40;;
11907;SDS011;6014;47.690;9.130;2023-03-23T04:52:57;7.10;;;3.63;;
11907;SDS011;6014;47.690;9.130;2023-03-23T04:55:30;7.50;;;3.70;;
11907;SDS011;6014;47.690;9.130;2023-03-23T04:58:01;7.00;;;3.53;;
11907;SDS011;6014;47.690;9.130;2023-03-23T05:00:28;6.87;;;3.90;;
11907;SDS011;6014;47.690;9.130;2023-03-23T05:02:55;6.97;;;3.93;;
11907;SDS011;6014;47.690;9.130;2023-03-23T05:05:22;7.77;;;4.17;;
11907;SDS011;6014;47.690;9.130;2023-03-23T05:07:51;7.53;;;3.70;;
11907;SDS011;6014;47.690;9.130;2023-03-23T05:10:18;7.10;;;3.93;;
11907;SDS011;6014;47.690;9.130;2023-03-23T05:12:53;7.23;;;4.03;;
11907;SDS011;6014;47.690;9.130;2023-03-23T05:15:20;6.57;;;4.40;;
11907;SDS011;6014;47.690;9.130;2023-03-23T05:20:18;6.43;;;4.20;;
11907;SDS011;6014;47.690;9.130;2023-03-23T05:23:03;7.60;;;4.67;;
11907;SDS011;6014;47.690;9.130;2023-03-23T05:25:30;6.83;;;4.37;;
11907;SDS011;6014;47.690;9.130;2023-03-23T05:28:10;6.77;;;3.97;;
11907;SDS011;6014;47.690;9.130;2023-03-23T05:30:38;7.37;;;4.43;;
11907;SDS011;6014;47.690;9.130;2023-03-23T05:33:10;8.17;;;4.63;;
11907;SDS011;6014;47.690;9.130;2023-03-23T05:35:37;7.57;;;3.87;;
11907;SDS011;6014;47.690;9.130;2023-03-23T05:38:04;7.50;;;4.43;;
11907;SDS011;6014;47.690;9.130;2023-03-23T05:40:31;8.33;;;4.17;;
11907;SDS011;6014;47.690;9.130;2023-03-23T05:43:00;7.07;;;3.80;;
11907;SDS011;6014;47.690;9.130;2023-03-23T05:45:37;7.67;;;4.10;;
11907;SDS011;6014;47.690;9.130;2023-03-23T05:48:10;7.47;;;4.27;;
11907;SDS011;6014;47.690;9.130;2023-03-23T05:50:47;8.57;;;4.23;;
11907;SDS011;6014;47.690;9.130;2023-03-23T05:53:20;8.03;;;4.07;;
11907;SDS011;6014;47.690;9.130;2023-03-23T05:55:59;8.13;;;4.30;;
11907;SDS011;6014;47.690;9.130;2023-03-23T05:58:26;12.90;;;4.60;;
11907;SDS011;6014;47.690;9.130;2023-03-23T06:00:58;8.07;;;4.20;;
11907;SDS011;6014;47.690;9.130;2023-03-23T06:03:36;6.37;;;3.70;;
11907;SDS011;6014;47.690;9.130;2023-03-23T06:06:03;6.97;;;3.87;;
11907;SDS011;6014;47.690;9.130;2023-03-23T06:08:47;6.70;;;3.80;;
11907;SDS011;6014;47.690;9.130;2023-03-23T06:11:15;6.67;;;4.27;;
11907;SDS011;6014;47.690;9.130;2023-03-23T06:13:43;7.33;;;4.30;;
11907;SDS011;6014;47.690;9.130;2023-03-23T06:16:12;6.83;;;4.10;;
11907;SDS011;6014;47.690;9.130;2023-03-23T06:18:43;7.03;;;3.78;;
11907;SDS011;6014;47.690;9.130;2023-03-23T06:21:11;7.90;;;4.53;;
11907;SDS011;6014;47.690;9.130;2023-03-23T06:23:39;8.00;;;4.37;;
11907;SDS011;6014;47.690;9.130;2023-03-23T06:26:07;9.68;;;4.55;;
11907;SDS011;6014;47.690;9.130;2023-03-23T06:28:35;8.60;;;4.10;;
11907;SDS011;6014;47.690;9.130;2023-03-23T06:31:04;7.57;;;4.23;;
11907;SDS011;6014;47.690;9.130;2023-03-23T06:33:39;9.40;;;4.47;;
11907;SDS011;6014;47.690;9.130;2023-03-23T06:36:07;7.80;;;4.60;;
11907;SDS011;6014;47.690;9.130;2023-03-23T06:41:09;7.57;;;4.38;;
11907;SDS011;6014;47.690;9.130;2023-03-23T06:43:36;8.47;;;4.57;;
11907;SDS011;6014;47.690;9.130;2023-03-23T06:46:04;5.90;;;3.50;;
11907;SDS011;6014;47.690;9.130;2023-03-23T06:48:32;6.85;;;4.20;;
11907;SDS011;6014;47.690;9.130;2023-03-23T06:51:00;8.55;;;4.30;;
11907;SDS011;6014;47.690;9.130;2023-03-23T06:53:27;7.25;;;4.07;;
11907;SDS011;6014;47.690;9.130;2023-03-23T06:55:55;8.63;;;3.88;;
11907;SDS011;6014;47.690;9.130;2023-03-23T06:58:22;8.43;;;4.15;;
11907;SDS011;6014;47.690;9.130;2023-03-23T07:00:53;7.70;;;3.67;;
11907;SDS011;6014;47.690;9.130;2023-03-23T07:03:21;7.32;;;4.15;;
11907;SDS011;6014;47.690;9.130;2023-03-23T07:05:49;6.32;;;3.47;;
11907;SDS011;6014;47.690;9.130;2023-03-23T07:08:18;8.45;;;3.72;;
11907;SDS011;6014;47.690;9.130;2023-03-23T07:10:50;6.53;;;4.03;;
11907;SDS011;6014;47.690;9.130;2023-03-23T07:13:18;7.15;;;3.88;;
11907;SDS011;6014;47.690;9.130;2023-03-23T07:15:46;7.22;;;4.05;;
11907;SDS011;6014;47.690;9.130;2023-03-23T07:18:15;10.68;;;4.10;;
11907;SDS011;6014;47.690;9.130;2023-03-23T07:20:42;7.47;;;3.75;;
11907;SDS011;6014;47.690;9.130;2023-03-23T07:23:12;7.75;;;3.90;;
11907;SDS011;6014;47.690;9.130;2023-03-23T07:28:30;7.40;;;3.85;;
11907;SDS011;6014;47.690;9.130;2023-03-23T07:30:57;6.30;;;3.60;;
11907;SDS011;6014;47.690;9.130;2023-03-23T07:33:24;8.13;;;3.50;;
11907;SDS011;6014;47.690;9.130;2023-03-23T07:35:57;6.53;;;2.80;;
11907;SDS011;6014;47.690;9.130;2023-03-23T07:38:25;5.75;;;3.15;;
11907;SDS011;6014;47.690;9.130;2023-03-23T07:40:52;5.10;;;2.67;;
11907;SDS011;6014;47.690;9.130;2023-03-23T07:43:23;5.03;;;2.72;;
11907;SDS011;6014;47.690;9.130;2023-03-23T07:45:50;5.95;;;2.50;;
11907;SDS011;6014;47.690;9.130;2023-03-23T07:48:17;5.97;;;2.85;;
11907;SDS011;6014;47.690;9.130;2023-03-23T07:50:44;4.28;;;2.38;;
11907;SDS011;6014;47.690;9.130;2023-03-23T07:53:12;5.43;;;2.63;;
11907;SDS011;6014;47.690;9.130;2023-03-23T07:55:39;5.55;;;2.58;;
11907;SDS011;6014;47.690;9.130;2023-03-23T07:58:06;6.05;;;2.53;;
11907;SDS011;6014;47.690;9.130;2023-03-23T08:00:37;6.20;;;2.45;;
11907;SDS011;6014;47.690;9.130;2023-03-23T08:03:06;5.10;;;2.20;;
11907;SDS011;6014;47.690;9.130;2023-03-23T08:10:34;4.93;;;2.63;;
11907;SDS011;6014;47.690;9.130;2023-03-23T08:13:02;6.05;;;2.80;;
11907;SDS011;6014;47.690;9.130;2023-03-23T08:15:33;7.65;;;2.80;;
11907;SDS011;6014;47.690;9.130;2023-03-23T08:18:05;7.53;;;2.60;;
11907;SDS011;6014;47.690;9.130;2023-03-23T08:20:33;5.55;;;2.80;;
11907;SDS011;6014;47.690;9.130;2023-03-23T08:23:04;4.55;;;2.58;;
11907;SDS011;6014;47.690;9.130;2023-03-23T08:25:33;5.30;;;2.60;;
11907;SDS011;6014;47.690;9.130;2023-03-23T08:28:01;7.28;;;2.25;;
11907;SDS011;6014;47.690;9.130;2023-03-23T08:30:30;6.13;;;2.75;;
11907;SDS011;6014;47.690;9.130;2023-03-23T08:32:59;7.53;;;3.03;;
11907;SDS011;6014;47.690;9.130;2023-03-23T08:35:27;4.80;;;2.90;;
11907;SDS011;6014;47.690;9.130;2023-03-23T08:37:54;4.68;;;2.47;;
11907;SDS011;6014;47.690;9.130;2023-03-23T08:40:22;6.03;;;2.63;;
11907;SDS011;6014;47.690;9.130;2023-03-23T08:42:51;5.55;;;2.50;;
11907;SDS011;6014;47.690;9.130;2023-03-23T08:45:20;5.00;;;2.42;;
11907;SDS011;6014;47.690;9.130;2023-03-23T08:47:49;4.95;;;2.33;;
11907;SDS011;6014;47.690;9.130;2023-03-23T08:50:20;4.68;;;2.15;;
11907;SDS011;6014;47.690;9.130;2023-03-23T08:52:50;6.10;;;2.40;;
11907;SDS011;6014;47.690;9.130;2023-03-23T08:55:18;11.45;;;3.20;;
11907;SDS011;6014;47.690;9.130;2023-03-23T08:57:45;5.38;;;2.78;;
11907;SDS011;6014;47.690;9.130;2023-03-23T09:00:15;4.50;;;2.10;;
11907;SDS011;6014;47.690;9.130;2023-03-23T09:02:47;3.83;;;2.00;;
11907;SDS011;6014;47.690;9.130;2023-03-23T09:05:17;5.65;;;2.60;;
11907;SDS011;6014;47.690;9.130;2023-03-23T09:07:48;6.20;;;2.60;;
11907;SDS011;6014;47.690;9.130;2023-03-23T09:10:18;5.03;;;2.38;;
11907;SDS011;6014;47.690;9.130;2023-03-23T09:12:47;5.10;;;2.30;;
11907;SDS011;6014;47.690;9.130;2023-03-23T09:15:15;4.40;;;2.40;;
11907;SDS011;6014;47.690;9.130;2023-03-23T09:17:44;4.50;;;2.20;;
11907;SDS011;6014;47.690;9.130;2023-03-23T09:20:12;4.03;;;2.00;;
11907;SDS011;6014;47.690;9.130;2023-03-23T09:22:46;6.07;;;2.38;;
11907;SDS011;6014;47.690;9.130;2023-03-23T09:25:22;5.40;;;2.22;;
11907;SDS011;6014;47.690;9.130;2023-03-23T09:27:54;4.70;;;2.25;;
11907;SDS011;6014;47.690;9.130;2023-03-23T09:30:23;4.65;;;2.17;;
11907;SDS011;6014;47.690;9.130;2023-03-23T09:32:51;3.97;;;1.95;;
11907;SDS011;6014;47.690;9.130;2023-03-23T09:35:19;5.28;;;2.30;;
11907;SDS011;6014;47.690;9.130;2023-03-23T09:37:47;4.28;;;2.10;;
11907;SDS011;6014;47.690;9.130;2023-03-23T09:40:17;4.03;;;1.98;;
11907;SDS011;6014;47.690;9.130;2023-03-23T09:43:08;3.55;;;1.88;;
11907;SDS011;6014;47.690;9.130;2023-03-23T09:49:02;4.10;;;1.98;;
11907;SDS011;6014;47.690;9.130;2023-03-23T09:51:38;3.55;;;1.80;;
11907;SDS011;6014;47.690;9.130;2023-03-23T09:54:18;3.50;;;1.85;;
11907;SDS011;6014;47.690;9.130;2023-03-23T09:56:48;3.15;;;1.73;;
11907;SDS011;6014;47.690;9.130;2023-03-23T09:59:20;4.65;;;1.85;;
11907;SDS011;6014;47.690;9.130;2023-03-23T10:01:52;3.97;;;2.00;;
11907;SDS011;6014;47.690;9.130;2023-03-23T10:04:26;4.65;;;1.77;;
11907;SDS011;6014;47.690;9.130;2023-03-23T10:06:58;3.63;;;2.20;;
11907;SDS011;6014;47.690;9.130;2023-03-23T10:09:37;3.22;;;1.73;;
11907;SDS011;6014;47.690;9.130;2023-03-23T10:12:09;4.15;;;1.92;;
11907;SDS011;6014;47.690;9.130;2023-03-23T10:15:00;4.22;;;2.00;;
11907;SDS011;6014;47.690;9.130;2023-03-23T10:17:36;3.80;;;2.10;;
11907;SDS011;6014;47.690;9.130;2023-03-23T10:23:12;4.03;;;2.00;;
11907;SDS011;6014;47.690;9.130;2023-03-23T10:25:41;4.07;;;1.88;;
11907;SDS011;6014;47.690;9.130;2023-03-23T10:28:20;4.72;;;1.80;;
11907;SDS011;6014;47.690;9.130;2023-03-23T10:30:53;5.10;;;2.05;;
11907;SDS011;6014;47.690;9.130;2023-03-23T10:33:24;5.38;;;1.77;;
11907;SDS011;6014;47.690;9.130;2023-03-23T10:35:57;3.33;;;1.52;;
11907;SDS011;6014;47.690;9.130;2023-03-23T10:38:32;5.43;;;1.85;;
11907;SDS011;6014;47.690;9.130;2023-03-23T10:41:04;5.07;;;1.60;;
11907;SDS011;6014;47.690;9.130;2023-03-23T10:43:36;3.05;;;1.80;;
11907;SDS011;6014;47.690;9.130;2023-03-23T10:46:10;4.57;;;1.98;;
11907;SDS011;6014;47.690;9.130;2023-03-23T10:48:48;2.40;;;1.40;;
11907;SDS011;6014;47.690;9.130;2023-03-23T10:51:23;5.82;;;1.75;;
11907;SDS011;6014;47.690;9.130;2023-03-23T10:53:57;2.88;;;1.50;;
11907;SDS011;6014;47.690;9.130;2023-03-23T10:56:27;5.20;;;1.73;;
11907;SDS011;6014;47.690;9.130;2023-03-23T10:58:55;3.70;;;1.73;;
11907;SDS011;6014;47.690;9.130;2023-03-23T11:01:30;2.75;;;1.45;;
11907;SDS011;6014;47.690;9.130;2023-03-23T11:04:00;4.32;;;1.63;;
11907;SDS011;6014;47.690;9.130;2023-03-23T11:06:31;2.88;;;1.67;;
11907;SDS011;6014;47.690;9.130;2023-03-23T11:12:16;4.00;;;1.70;;
11907;SDS011;6014;47.690;9.130;2023-03-23T11:14:44;3.90;;;1.75;;
11907;SDS011;6014;47.690;9.130;2023-03-23T11:17:22;2.83;;;1.58;;
11907;SDS011;6014;47.690;9.130;2023-03-23T11:19:51;3.22;;;1.55;;
11907;SDS011;6014;47.690;9.130;2023-03-23T11:22:20;4.72;;;1.45;;
11907;SDS011;6014;47.690;9.130;2023-03-23T11:24:54;3.20;;;1.73;;
11907;SDS011;6014;47.690;9.130;2023-03-23T11:27:22;2.25;;;1.40;;
11907;SDS011;6014;47.690;9.130;2023-03-23T11:29:51;2.88;;;1.63;;
11907;SDS011;6014;47.690;9.130;2023-03-23T11:32:24;4.32;;;1.50;;
11907;SDS011;6014;47.690;9.130;2023-03-23T11:37:30;4.32;;;1.73;;
11907;SDS011;6014;47.690;9.130;2023-03-23T11:40:01;4.40;;;1.83;;
11907;SDS011;6014;47.690;9.130;2023-03-23T11:42:43;3.45;;;1.80;;
11907;SDS011;6014;47.690;9.130;2023-03-23T11:45:17;3.50;;;1.77;;
11907;SDS011;6014;47.690;9.130;2023-03-23T11:48:00;3.55;;;1.80;;
11907;SDS011;6014;47.690;9.130;2023-03-23T11:50:51;3.90;;;1.80;;
11907;SDS011;6014;47.690;9.130;2023-03-23T11:53:24;7.88;;;1.77;;
11907;SDS011;6014;47.690;9.130;2023-03-23T11:56:01;2.90;;;1.63;;
11907;SDS011;6014;47.690;9.130;2023-03-23T11:58:36;3.25;;;1.52;;
11907;SDS011;6014;47.690;9.130;2023-03-23T12:01:05;3.55;;;1.50;;
11907;SDS011;6014;47.690;9.130;2023-03-23T12:06:47;3.88;;;1.65;;
11907;SDS011;6014;47.690;9.130;2023-03-23T12:09:28;5.78;;;1.67;;
11907;SDS011;6014;47.690;9.130;2023-03-23T12:12:09;2.80;;;1.55;;
11907;SDS011;6014;47.690;9.130;2023-03-23T12:14:45;3.28;;;1.50;;
11907;SDS011;6014;47.690;9.130;2023-03-23T12:17:23;3.72;;;1.60;;
11907;SDS011;6014;47.690;9.130;2023-03-23T12:20:01;4.82;;;1.52;;
11907;SDS011;6014;47.690;9.130;2023-03-23T12:22:44;3.42;;;1.48;;
11907;SDS011;6014;47.690;9.130;2023-03-23T12:25:33;3.15;;;1.40;;
11907;SDS011;6014;47.690;9.130;2023-03-23T12:28:24;3.53;;;1.63;;
11907;SDS011;6014;47.690;9.130;2023-03-23T12:31:02;4.22;;;2.03;;
11907;SDS011;6014;47.690;9.130;2023-03-23T12:33:40;3.78;;;1.55;;
11907;SDS011;6014;47.690;9.130;2023-03-23T12:36:20;3.42;;;1.70;;
11907;SDS011;6014;47.690;9.130;2023-03-23T12:41:54;3.65;;;1.67;;
11907;SDS011;6014;47.690;9.130;2023-03-23T12:44:41;3.38;;;1.38;;
11907;SDS011;6014;47.690;9.130;2023-03-23T12:47:19;3.17;;;1.60;;
11907;SDS011;6014;47.690;9.130;2023-03-23T12:49:59;3.72;;;1.48;;
11907;SDS011;6014;47.690;9.130;2023-03-23T12:52:35;4.78;;;2.00;;
11907;SDS011;6014;47.690;9.130;2023-03-23T12:55:09;4.07;;;1.90;;
11907;SDS011;6014;47.690;9.130;2023-03-23T12:57:52;2.50;;;1.33;;
11907;SDS011;6014;47.690;9.130;2023-03-23T13:03:17;3.35;;;1.50;;
11907;SDS011;6014;47.690;9.130;2023-03-23T13:05:52;2.97;;;1.60;;
11907;SDS011;6014;47.690;9.130;2023-03-23T13:11:18;3.30;;;1.60;;
11907;SDS011;6014;47.690;9.130;2023-03-23T13:13:51;3.42;;;1.65;;
11907;SDS011;6014;47.690;9.130;2023-03-23T13:16:26;2.97;;;1.50;;
11907;SDS011;6014;47.690;9.130;2023-03-23T13:19:02;5.30;;;2.03;;
11907;SDS011;6014;47.690;9.130;2023-03-23T13:21:41;3.20;;;1.70;;
11907;SDS011;6014;47.690;9.130;2023-03-23T13:24:20;3.22;;;1.73;;
11907;SDS011;6014;47.690;9.130;2023-03-23T13:26:56;2.67;;;1.50;;
11907;SDS011;6014;47.690;9.130;2023-03-23T13:29:28;3.53;;;1.80;;
11907;SDS011;6014;47.690;9.130;2023-03-23T13:32:11;5.30;;;1.95;;
11907;SDS011;6014;47.690;9.130;2023-03-23T13:37:29;3.90;;;1.58;;
11907;SDS011;6014;47.690;9.130;2023-03-23T15:13:17;6.32;;;1.90;;
11907;SDS011;6014;47.690;9.130;2023-03-23T16:02:10;3.20;;;1.67;;
11907;SDS011;6014;47.690;9.130;2023-03-23T16:04:44;3.05;;;1.60;;
11907;SDS011;6014;47.690;9.130;2023-03-23T16:07:13;3.30;;;1.67;;
11907;SDS011;6014;47.690;9.130;2023-03-23T16:09:41;5.57;;;1.83;;
11907;SDS011;6014;47.690;9.130;2023-03-23T16:12:10;3.65;;;2.10;;
11907;SDS011;6014;47.690;9.130;2023-03-23T16:14:39;2.60;;;1.70;;
11907;SDS011;6014;47.690;9.130;2023-03-23T16:17:10;2.70;;;1.45;;
11907;SDS011;6014;47.690;9.130;2023-03-23T16:19:41;4.13;;;1.60;;
11907;SDS011;6014;47.690;9.130;2023-03-23T16:22:09;4.25;;;1.88;;
11907;SDS011;6014;47.690;9.130;2023-03-23T16:24:37;4.10;;;1.60;;
11907;SDS011;6014;47.690;9.130;2023-03-23T16:27:13;2.05;;;1.13;;
11907;SDS011;6014;47.690;9.130;2023-03-23T16:29:42;3.70;;;1.80;;
11907;SDS011;6014;47.690;9.130;2023-03-23T16:32:30;5.07;;;1.60;;
11907;SDS011;6014;47.690;9.130;2023-03-23T16:34:57;4.07;;;1.77;;
11907;SDS011;6014;47.690;9.130;2023-03-23T16:37:26;3.63;;;1.70;;
11907;SDS011;6014;47.690;9.130;2023-03-23T16:39:58;3.28;;;1.52;;
11907;SDS011;6014;47.690;9.130;2023-03-23T16:42:27;6.07;;;1.60;;
11907;SDS011;6014;47.690;9.130;2023-03-23T16:44:55;2.97;;;1.80;;
11907;SDS011;6014;47.690;9.130;2023-03-23T16:47:23;5.78;;;2.05;;
11907;SDS011;6014;47.690;9.130;2023-03-23T16:49:53;3.72;;;1.60;;
11907;SDS011;6014;47.690;9.130;2023-03-23T16:52:21;3.38;;;1.58;;
11907;SDS011;6014;47.690;9.130;2023-03-23T16:54:49;4.03;;;1.70;;
11907;SDS011;6014;47.690;9.130;2023-03-23T16:57:17;3.33;;;1.65;;
11907;SDS011;6014;47.690;9.130;2023-03-23T16:59:45;4.13;;;1.98;;
11907;SDS011;6014;47.690;9.130;2023-03-23T17:02:14;4.40;;;2.20;;
11907;SDS011;6014;47.690;9.130;2023-03-23T17:04:42;3.35;;;1.95;;
11907;SDS011;6014;47.690;9.130;2023-03-23T17:07:13;3.63;;;1.75;;
11907;SDS011;6014;47.690;9.130;2023-03-23T17:09:41;3.63;;;1.80;;
11907;SDS011;6014;47.690;9.130;2023-03-23T17:12:09;5.43;;;2.00;;
11907;SDS011;6014;47.690;9.130;2023-03-23T17:14:37;2.92;;;1.70;;
11907;SDS011;6014;47.690;9.130;2023-03-23T17:17:05;7.63;;;1.77;;
11907;SDS011;6014;47.690;9.130;2023-03-23T17:19:35;4.15;;;1.65;;
11907;SDS011;6014;47.690;9.130;2023-03-23T17:22:04;3.22;;;1.50;;
11907;SDS011;6014;47.690;9.130;2023-03-23T17:24:33;2.90;;;1.77;;
11907;SDS011;6014;47.690;9.130;2023-03-23T17:27:01;3.53;;;1.88;;
11907;SDS011;6014;47.690;9.130;2023-03-23T17:29:29;4.07;;;2.05;;
11907;SDS011;6014;47.690;9.130;2023-03-23T17:31:57;3.80;;;2.00;;
11907;SDS011;6014;47.690;9.130;2023-03-23T17:34:25;3.13;;;1.58;;
11907;SDS011;6014;47.690;9.130;2023-03-23T17:36:53;3.90;;;2.00;;
11907;SDS011;6014;47.690;9.130;2023-03-23T17:39:22;5.05;;;2.13;;
11907;SDS011;6014;47.690;9.130;2023-03-23T17:41:51;7.25;;;3.47;;
11907;SDS011;6014;47.690;9.130;2023-03-23T17:44:19;5.32;;;2.95;;
11907;SDS011;6014;47.690;9.130;2023-03-23T17:46:47;6.53;;;3.20;;
11907;SDS011;6014;47.690;9.130;2023-03-23T17:49:15;8.20;;;2.40;;
11907;SDS011;6014;47.690;9.130;2023-03-23T17:51:43;5.53;;;2.60;;
11907;SDS011;6014;47.690;9.130;2023-03-23T17:54:11;5.10;;;2.50;;
11907;SDS011;6014;47.690;9.130;2023-03-23T17:56:39;7.57;;;2.38;;
11907;SDS011;6014;47.690;9.130;2023-03-23T17:59:09;5.65;;;2.00;;
11907;SDS011;6014;47.690;9.130;2023-03-23T18:01:37;5.80;;;2.30;;
11907;SDS011;6014;47.690;9.130;2023-03-23T18:04:05;7.95;;;2.47;;
11907;SDS011;6014;47.690;9.130;2023-03-23T18:06:34;4.85;;;2.08;;
11907;SDS011;6014;47.690;9.130;2023-03-23T18:09:02;5.07;;;2.22;;
11907;SDS011;6014;47.690;9.130;2023-03-23T18:11:30;5.97;;;2.63;;
11907;SDS011;6014;47.690;9.130;2023-03-23T18:13:58;7.88;;;2.15;;
11907;SDS011;6014;47.690;9.130;2023-03-23T18:16:29;4.90;;;2.30;;
11907;SDS011;6014;47.690;9.130;2023-03-23T18:18:57;4.47;;;2.42;;
11907;SDS011;6014;47.690;9.130;2023-03-23T18:21:26;6.88;;;2.58;;
11907;SDS011;6014;47.690;9.130;2023-03-23T18:23:54;5.97;;;2.30;;
11907;SDS011;6014;47.690;9.130;2023-03-23T18:26:25;4.90;;;1.92;;
11907;SDS011;6014;47.690;9.130;2023-03-23T18:28:54;7.38;;;2.28;;
11907;SDS011;6014;47.690;9.130;2023-03-23T18:31:22;8.18;;;3.00;;
11907;SDS011;6014;47.690;9.130;2023-03-23T18:33:52;5.00;;;2.80;;
11907;SDS011;6014;47.690;9.130;2023-03-23T18:36:21;6.07;;;3.10;;
11907;SDS011;6014;47.690;9.130;2023-03-23T18:38:52;6.18;;;2.10;;
11907;SDS011;6014;47.690;9.130;2023-03-23T18:41:22;4.72;;;2.38;;
11907;SDS011;6014;47.690;9.130;2023-03-23T18:43:50;4.45;;;2.20;;
11907;SDS011;6014;47.690;9.130;2023-03-23T18:46:20;8.80;;;2.22;;
11907;SDS011;6014;47.690;9.130;2023-03-23T18:48:48;5.40;;;2.58;;
11907;SDS011;6014;47.690;9.130;2023-03-23T18:51:18;5.03;;;2.17;;
11907;SDS011;6014;47.690;9.130;2023-03-23T18:53:46;7.50;;;3.05;;
11907;SDS011;6014;47.690;9.130;2023-03-23T18:56:14;7.03;;;3.20;;